createdAt,value
2023-05-13T00:01:50.002Z,9.57
2023-05-13T00:04:58.308Z,9.45
2023-05-13T00:08:08.069Z,9.51
2023-05-13T00:11:16.243Z,9.50
2023-05-13T00:14:24.521Z,9.45
2023-05-13T00:17:32.782Z,9.37
2023-05-13T00:20:41.565Z,9.31
2023-05-13T00:23:51.077Z,9.35
2023-05-13T00:26:59.468Z,9.32
2023-05-13T00:30:09.770Z,9.34
2023-05-13T00:33:18.077Z,9.37
2023-05-13T00:36:27.474Z,9.35
2023-05-13T00:39:37.372Z,9.35
2023-05-13T00:42:46.333Z,9.34
2023-05-13T00:45:54.789Z,9.37
2023-05-13T00:49:06.628Z,9.35
2023-05-13T00:52:15.131Z,9.44
2023-05-13T00:55:25.463Z,9.45
2023-05-13T00:58:34.052Z,9.40
2023-05-13T01:02:05.356Z,9.42
2023-05-13T01:05:27.938Z,9.49
2023-05-13T01:08:45.236Z,9.36
2023-05-13T01:11:58.089Z,9.33
2023-05-13T01:15:11.171Z,9.31
2023-05-13T01:18:26.372Z,9.29
2023-05-13T01:21:39.983Z,9.30
2023-05-13T01:24:48.317Z,9.28
2023-05-13T01:27:57.280Z,9.35
2023-05-13T01:31:10.855Z,9.27
2023-05-13T01:34:22.093Z,9.31
2023-05-13T01:37:32.579Z,9.30
2023-05-13T01:40:42.838Z,9.32
2023-05-13T01:43:51.479Z,9.38
2023-05-13T01:47:00.038Z,9.42
2023-05-13T01:50:10.163Z,9.38
2023-05-13T01:53:20.363Z,9.36
2023-05-13T01:56:31.250Z,9.30
2023-05-13T01:59:39.850Z,9.28
2023-05-13T02:02:48.199Z,9.26
2023-05-13T02:05:56.517Z,9.21
2023-05-13T02:09:06.831Z,9.26
2023-05-13T02:12:15.073Z,9.27
2023-05-13T02:15:23.298Z,9.22
2023-05-13T02:18:31.653Z,9.28
2023-05-13T02:21:40.666Z,9.36
2023-05-13T02:24:50.458Z,9.32
2023-05-13T02:27:59.669Z,9.39
2023-05-13T02:34:28.327Z,9.49
2023-05-13T02:37:36.466Z,9.45
2023-05-13T02:40:48.251Z,9.41
2023-05-13T02:43:58.876Z,9.44
2023-05-13T02:47:07.781Z,9.39
2023-05-13T02:50:16.307Z,9.25
2023-05-13T02:53:25.973Z,9.29
2023-05-13T02:56:39.234Z,9.29
2023-05-13T02:59:47.584Z,9.26
2023-05-13T03:02:56.336Z,9.27
2023-05-13T03:06:05.028Z,9.24
2023-05-13T03:09:13.244Z,9.15
2023-05-13T03:12:23.098Z,9.08
2023-05-13T03:15:31.775Z,9.14
2023-05-13T03:18:40.213Z,9.09
2023-05-13T03:21:48.718Z,9.19
2023-05-13T03:24:58.310Z,9.14
2023-05-13T03:28:13.417Z,9.14
2023-05-13T03:31:25.030Z,9.13
2023-05-13T03:34:36.212Z,9.16
2023-05-13T03:37:45.214Z,9.10
2023-05-13T03:40:55.543Z,9.12
2023-05-13T03:44:05.482Z,9.16
2023-05-13T03:47:14.406Z,9.14
2023-05-13T03:50:22.837Z,9.13
2023-05-13T03:53:32.948Z,9.02
2023-05-13T03:56:41.226Z,9.03
2023-05-13T03:59:51.016Z,9.11
2023-05-13T04:03:00.428Z,9.07
2023-05-13T04:06:09.088Z,9.09
2023-05-13T04:09:17.810Z,9.12
2023-05-13T04:12:25.880Z,9.07
2023-05-13T04:15:35.336Z,9.16
2023-05-13T04:18:43.479Z,9.18
2023-05-13T04:21:51.914Z,9.20
2023-05-13T04:25:00.061Z,9.17
2023-05-13T04:28:08.276Z,9.10
2023-05-13T04:31:22.508Z,9.21
2023-05-13T04:34:30.863Z,9.17
2023-05-13T04:37:39.664Z,9.23
2023-05-13T04:40:50.605Z,9.27
2023-05-13T04:44:06.293Z,9.33
2023-05-13T04:47:16.862Z,9.36
2023-05-13T04:50:26.089Z,9.37
2023-05-13T04:53:36.023Z,9.41
2023-05-13T04:56:46.653Z,9.44
2023-05-13T04:59:55.239Z,9.50
2023-05-13T05:03:04.977Z,9.43
2023-05-13T05:06:13.804Z,9.44
2023-05-13T05:09:23.062Z,9.42
2023-05-13T05:12:33.398Z,9.43
2023-05-13T05:15:41.710Z,9.33
2023-05-13T05:18:51.970Z,9.25
2023-05-13T05:22:01.018Z,9.26
2023-05-13T05:25:11.658Z,9.17
2023-05-13T05:28:20.209Z,9.28
2023-05-13T05:31:28.647Z,9.12
2023-05-13T05:34:40.991Z,9.21
2023-05-13T05:37:50.948Z,9.37
2023-05-13T05:40:59.378Z,9.47
2023-05-13T05:44:09.133Z,9.45
2023-05-13T05:47:17.936Z,9.49
2023-05-13T05:50:29.432Z,9.37
2023-05-13T05:53:40.909Z,9.45
2023-05-13T05:56:50.069Z,9.36
2023-05-13T05:59:58.345Z,9.33
2023-05-13T06:03:06.718Z,9.32
2023-05-13T06:06:16.944Z,9.32
2023-05-13T06:09:26.060Z,9.41
2023-05-13T06:12:35.273Z,9.32
2023-05-13T06:15:43.644Z,9.29
2023-05-13T06:18:53.448Z,9.34
2023-05-13T06:22:04.279Z,9.48
2023-05-13T06:25:12.778Z,9.63
2023-05-13T06:28:22.632Z,9.59
2023-05-13T06:31:32.167Z,9.67
2023-05-13T06:34:42.420Z,9.74
2023-05-13T06:37:52.070Z,9.85
2023-05-13T06:41:00.991Z,9.89
2023-05-13T06:44:16.021Z,9.83
2023-05-13T06:47:27.440Z,9.69
2023-05-13T06:50:35.896Z,9.79
2023-05-13T06:53:45.352Z,9.73
2023-05-13T06:56:53.619Z,9.84
2023-05-13T07:00:02.797Z,9.75
2023-05-13T07:03:10.927Z,9.88
2023-05-13T07:06:19.084Z,10.04
2023-05-13T07:09:28.603Z,9.97
2023-05-13T07:12:37.018Z,10.12
2023-05-13T07:15:45.707Z,10.16
2023-05-13T07:18:54.211Z,10.10
2023-05-13T07:22:02.683Z,10.19
2023-05-13T07:25:12.584Z,10.07
2023-05-13T07:28:21.029Z,10.01
2023-05-13T07:31:30.480Z,10.22
2023-05-13T07:34:38.918Z,10.14
2023-05-13T07:37:47.525Z,10.23
2023-05-13T07:40:57.114Z,10.38
2023-05-13T07:44:05.944Z,10.20
2023-05-13T07:47:14.738Z,10.31
2023-05-13T07:50:22.960Z,10.26
2023-05-13T07:53:31.567Z,10.33
2023-05-13T07:56:44.488Z,10.44
2023-05-13T07:59:54.264Z,10.56
2023-05-13T08:03:05.445Z,10.54
2023-05-13T08:06:14.649Z,10.62
2023-05-13T08:09:23.330Z,10.63
2023-05-13T08:12:33.611Z,10.93
2023-05-13T08:15:43.268Z,10.71
2023-05-13T08:18:52.140Z,10.45
2023-05-13T08:22:01.073Z,10.86
2023-05-13T08:25:11.561Z,11.04
2023-05-13T08:28:22.071Z,11.31
2023-05-13T08:31:32.487Z,11.36
2023-05-13T08:34:41.279Z,11.64
2023-05-13T08:37:49.984Z,12.58
2023-05-13T08:40:58.585Z,13.80
2023-05-13T08:44:13.399Z,14.18
2023-05-13T08:47:38.438Z,13.42
2023-05-13T08:50:47.608Z,13.32
2023-05-13T08:53:57.590Z,12.58
2023-05-13T08:57:06.935Z,12.53
2023-05-13T09:00:19.980Z,12.39
2023-05-13T09:03:30.131Z,12.89
2023-05-13T09:06:38.601Z,12.98
2023-05-13T09:09:46.961Z,12.93
2023-05-13T09:12:56.701Z,11.91
2023-05-13T09:16:07.444Z,11.63
2023-05-13T09:19:16.322Z,11.68
2023-05-13T09:22:24.841Z,11.34
2023-05-13T09:25:33.681Z,11.93
2023-05-13T09:28:42.172Z,11.88
2023-05-13T09:31:54.734Z,12.34
2023-05-13T09:35:16.805Z,13.07
2023-05-13T09:38:31.554Z,13.96
2023-05-13T09:41:39.882Z,14.44
2023-05-13T09:44:49.798Z,13.56
2023-05-13T09:47:59.510Z,13.79
2023-05-13T09:51:07.916Z,13.42
2023-05-13T09:54:16.188Z,12.57
2023-05-13T09:57:24.358Z,12.44
2023-05-13T10:00:34.351Z,12.53
2023-05-13T10:03:46.033Z,12.52
2023-05-13T10:06:56.973Z,12.28
2023-05-13T10:10:09.598Z,11.94
2023-05-13T10:13:24.559Z,11.97
2023-05-13T10:16:33.884Z,11.87
2023-05-13T10:19:44.189Z,11.68
2023-05-13T10:22:53.616Z,11.67
2023-05-13T10:26:03.069Z,12.06
2023-05-13T10:29:12.551Z,11.68
2023-05-13T10:32:21.307Z,11.69
2023-05-13T10:35:38.162Z,11.62
2023-05-13T10:39:14.269Z,11.56
2023-05-13T10:42:47.935Z,11.75
2023-05-13T10:46:02.641Z,11.78
2023-05-13T10:49:16.645Z,11.69
2023-05-13T10:52:44.002Z,11.84
2023-05-13T10:55:59.634Z,11.89
2023-05-13T10:59:08.167Z,12.03
2023-05-13T11:02:23.353Z,12.05
2023-05-13T11:05:34.718Z,11.82
2023-05-13T11:08:46.738Z,11.67
2023-05-13T11:11:57.135Z,11.80
2023-05-13T11:15:23.261Z,11.84
2023-05-13T11:18:32.241Z,11.97
2023-05-13T11:21:41.353Z,11.87
2023-05-13T11:25:07.500Z,12.01
2023-05-13T11:28:19.363Z,12.12
2023-05-13T11:31:35.289Z,12.38
2023-05-13T11:34:53.265Z,12.14
2023-05-13T11:38:03.732Z,12.56
2023-05-13T11:41:15.129Z,12.85
2023-05-13T11:44:25.883Z,13.21
2023-05-13T11:47:34.244Z,13.49
2023-05-13T11:50:42.684Z,14.45
2023-05-13T11:53:50.911Z,15.34
2023-05-13T11:57:00.885Z,14.79
2023-05-13T12:00:12.763Z,14.98
2023-05-13T12:03:21.325Z,15.58
2023-05-13T12:06:31.324Z,16.28
2023-05-13T12:09:39.808Z,15.50
2023-05-13T12:12:52.070Z,14.44
2023-05-13T12:16:00.420Z,14.02
2023-05-13T12:19:09.173Z,13.57
2023-05-13T12:22:17.735Z,13.36
2023-05-13T12:25:45.556Z,13.15
2023-05-13T12:29:00.255Z,13.42
2023-05-13T12:32:09.062Z,13.41
2023-05-13T12:35:17.577Z,13.42
2023-05-13T12:38:26.703Z,13.24
2023-05-13T12:41:36.939Z,13.54
2023-05-13T12:44:48.167Z,13.61
2023-05-13T12:47:56.934Z,14.18
2023-05-13T12:51:06.097Z,14.22
2023-05-13T12:54:14.703Z,14.45
2023-05-13T12:57:24.367Z,14.97
2023-05-13T13:00:34.346Z,15.01
2023-05-13T13:03:42.873Z,14.63
2023-05-13T13:06:51.422Z,13.97
2023-05-13T13:09:59.575Z,13.24
2023-05-13T13:13:07.983Z,13.24
2023-05-13T13:16:18.044Z,13.44
2023-05-13T13:19:26.358Z,13.56
2023-05-13T13:22:36.986Z,14.63
2023-05-13T13:25:45.512Z,13.92
2023-05-13T13:28:53.806Z,13.79
2023-05-13T13:32:04.096Z,13.90
2023-05-13T13:35:12.597Z,13.71
2023-05-13T13:38:20.828Z,13.29
2023-05-13T13:41:29.237Z,13.38
2023-05-13T13:44:39.666Z,13.58
2023-05-13T13:47:49.519Z,13.95
2023-05-13T13:50:58.711Z,14.29
2023-05-13T13:54:07.840Z,14.20
2023-05-13T13:57:16.674Z,13.88
2023-05-13T14:00:25.479Z,13.56
2023-05-13T14:03:35.115Z,13.08
2023-05-13T14:06:43.993Z,12.71
2023-05-13T14:09:52.636Z,12.45
2023-05-13T14:13:00.952Z,12.80
2023-05-13T14:16:09.534Z,13.04
2023-05-13T14:19:19.615Z,12.80
2023-05-13T14:22:28.125Z,12.88
2023-05-13T14:25:36.912Z,13.01
2023-05-13T14:28:45.863Z,13.62
2023-05-13T14:31:54.581Z,13.50
2023-05-13T14:35:04.344Z,13.42
2023-05-13T14:38:12.577Z,13.13
2023-05-13T14:41:22.632Z,13.08
2023-05-13T14:44:31.177Z,12.91
2023-05-13T14:47:39.801Z,12.91
2023-05-13T14:50:50.950Z,13.14
2023-05-13T14:53:59.490Z,13.50
2023-05-13T14:57:08.918Z,14.05
2023-05-13T15:00:18.704Z,14.38
2023-05-13T15:03:27.259Z,14.20
2023-05-13T15:06:38.918Z,14.28
2023-05-13T15:09:47.341Z,14.12
2023-05-13T15:12:55.726Z,13.97
2023-05-13T15:16:05.629Z,13.80
2023-05-13T15:19:14.262Z,13.61
2023-05-13T15:22:25.075Z,13.57
2023-05-13T15:25:33.627Z,13.52
2023-05-13T15:28:42.211Z,13.55
2023-05-13T15:31:51.750Z,13.36
2023-05-13T15:35:00.005Z,13.42
2023-05-13T15:38:10.792Z,13.49
2023-05-13T15:41:19.057Z,13.61
2023-05-13T15:44:27.984Z,13.68
2023-05-13T15:47:38.842Z,13.61
2023-05-13T15:50:48.019Z,13.70
2023-05-13T15:54:00.023Z,13.51
2023-05-13T15:57:09.194Z,13.65
2023-05-13T16:00:20.224Z,13.85
2023-05-13T16:03:29.573Z,13.99
2023-05-13T16:06:38.809Z,14.06
2023-05-13T16:09:49.024Z,14.08
2023-05-13T16:12:58.078Z,14.16
2023-05-13T16:16:08.022Z,14.19
2023-05-13T16:19:16.661Z,14.20
2023-05-13T16:22:32.545Z,14.23
2023-05-13T16:25:44.430Z,14.35
2023-05-13T16:28:53.370Z,14.36
2023-05-13T16:32:01.752Z,14.29
2023-05-13T16:35:12.893Z,14.31
2023-05-13T16:38:21.501Z,14.20
2023-05-13T16:41:31.205Z,14.17
2023-05-13T16:44:39.804Z,13.98
2023-05-13T16:47:48.361Z,15.07
2023-05-13T16:50:56.965Z,16.87
2023-05-13T16:54:05.560Z,16.52
2023-05-13T16:57:16.219Z,16.56
2023-05-13T17:00:24.908Z,16.13
2023-05-13T17:03:33.419Z,16.07
2023-05-13T17:06:42.188Z,14.68
2023-05-13T17:09:51.266Z,14.71
2023-05-13T17:13:01.353Z,14.19
2023-05-13T17:16:10.759Z,14.19
2023-05-13T17:19:19.756Z,13.96
2023-05-13T17:22:28.343Z,13.68
2023-05-13T17:25:36.728Z,13.38
2023-05-13T17:28:46.716Z,13.23
2023-05-13T17:31:55.634Z,13.05
2023-05-13T17:35:06.245Z,12.92
2023-05-13T17:38:14.922Z,12.82
2023-05-13T17:41:23.188Z,12.82
2023-05-13T17:44:34.124Z,12.93
2023-05-13T17:47:42.897Z,13.18
2023-05-13T17:50:51.926Z,13.50
2023-05-13T17:54:00.247Z,13.73
2023-05-13T17:57:10.172Z,13.72
2023-05-13T18:00:21.226Z,13.82
2023-05-13T18:03:29.841Z,13.72
2023-05-13T18:06:38.613Z,13.60
2023-05-13T18:09:48.628Z,13.49
2023-05-13T18:12:58.484Z,13.27
2023-05-13T18:16:10.305Z,13.05
2023-05-13T18:19:20.004Z,12.89
2023-05-13T18:22:28.805Z,12.80
2023-05-13T18:25:45.425Z,12.78
2023-05-13T18:29:03.383Z,12.72
2023-05-13T18:32:13.211Z,12.69
2023-05-13T18:35:23.565Z,12.61
2023-05-13T18:38:31.816Z,12.59
2023-05-13T18:41:40.132Z,12.57
2023-05-13T18:44:48.637Z,12.57
2023-05-13T18:47:58.362Z,12.61
2023-05-13T18:51:11.943Z,12.68
2023-05-13T18:54:20.124Z,12.57
2023-05-13T18:57:28.471Z,12.42
2023-05-13T19:00:37.464Z,12.12
2023-05-13T19:03:47.919Z,11.88
2023-05-13T19:06:56.230Z,11.75
2023-05-13T19:10:05.212Z,11.45
2023-05-13T19:13:14.854Z,11.21
2023-05-13T19:16:23.330Z,10.96
2023-05-13T19:19:33.112Z,10.99
2023-05-13T19:22:41.583Z,10.94
2023-05-13T19:25:50.270Z,10.90
2023-05-13T19:28:58.961Z,10.94
2023-05-13T19:32:07.939Z,10.95
2023-05-13T19:35:18.015Z,10.83
2023-05-13T19:38:26.514Z,10.59
2023-05-13T19:41:35.057Z,10.81
2023-05-13T19:44:43.442Z,10.79
2023-05-13T19:47:52.715Z,10.83
2023-05-13T19:51:02.513Z,10.86
2023-05-13T19:54:11.781Z,10.81
2023-05-13T19:57:20.011Z,10.84
2023-05-13T20:00:28.811Z,10.81
2023-05-13T20:03:37.098Z,10.80
2023-05-13T20:06:46.868Z,10.82
2023-05-13T20:09:55.469Z,10.79
2023-05-13T20:13:04.709Z,10.78
2023-05-13T20:16:13.375Z,10.76
2023-05-13T20:19:22.551Z,10.79
2023-05-13T20:22:32.359Z,10.64
2023-05-13T20:25:40.778Z,10.64
2023-05-13T20:28:51.364Z,10.53
2023-05-13T20:31:59.494Z,10.62
2023-05-13T20:35:10.116Z,10.53
2023-05-13T20:38:21.277Z,10.50
2023-05-13T20:41:29.676Z,10.56
2023-05-13T20:44:38.159Z,10.64
2023-05-13T20:47:46.640Z,10.66
2023-05-13T20:51:00.312Z,10.75
2023-05-13T20:54:13.124Z,10.85
2023-05-13T20:57:21.396Z,10.80
2023-05-13T21:00:29.659Z,10.80
2023-05-13T21:03:37.866Z,10.84
2023-05-13T21:06:46.232Z,10.85
2023-05-13T21:09:55.681Z,10.83
2023-05-13T21:13:03.885Z,10.83
2023-05-13T21:16:12.063Z,10.85
2023-05-13T21:19:22.286Z,10.86
2023-05-13T21:22:30.560Z,10.86
2023-05-13T21:25:40.376Z,10.90
2023-05-13T21:28:48.491Z,11.02
2023-05-13T21:31:57.042Z,11.03
2023-05-13T21:35:06.389Z,10.94
2023-05-13T21:38:14.643Z,10.97
2023-05-13T21:41:24.373Z,10.94
2023-05-13T21:44:32.887Z,10.99
2023-05-13T21:47:41.378Z,10.96
2023-05-13T21:50:49.605Z,10.98
2023-05-13T21:53:57.681Z,10.88
2023-05-13T21:57:07.882Z,10.89
2023-05-13T22:00:18.844Z,11.05
2023-05-13T22:03:27.265Z,10.95
2023-05-13T22:06:38.375Z,10.96
2023-05-13T22:09:48.431Z,10.77
2023-05-13T22:12:59.288Z,10.76
2023-05-13T22:16:07.746Z,10.82
2023-05-13T22:19:16.251Z,10.84
2023-05-13T22:22:24.599Z,10.88
2023-05-13T22:25:32.807Z,10.87
2023-05-13T22:28:42.221Z,10.87
2023-05-13T22:31:50.866Z,10.84
2023-05-13T22:34:59.187Z,10.90
2023-05-13T22:38:07.264Z,11.02
2023-05-13T22:41:15.657Z,10.94
2023-05-13T22:44:25.631Z,10.93
2023-05-13T22:47:34.257Z,10.89
2023-05-13T22:50:42.516Z,10.89
2023-05-13T22:53:50.611Z,10.90
2023-05-13T22:56:59.724Z,11.00
2023-05-13T23:00:12.244Z,10.93
2023-05-13T23:03:20.804Z,10.94
2023-05-13T23:06:28.923Z,10.92
2023-05-13T23:09:37.252Z,10.91
2023-05-13T23:12:45.364Z,10.94
2023-05-13T23:15:55.067Z,10.93
2023-05-13T23:19:03.801Z,11.00
2023-05-13T23:22:11.930Z,10.96
2023-05-13T23:25:20.842Z,10.96
2023-05-13T23:28:28.965Z,10.79
2023-05-13T23:31:41.271Z,10.78
2023-05-13T23:34:49.652Z,10.77
2023-05-13T23:37:58.023Z,10.76
2023-05-13T23:41:07.156Z,10.79
2023-05-13T23:44:15.352Z,10.78
2023-05-13T23:47:25.426Z,10.76
2023-05-13T23:50:33.980Z,10.79
2023-05-13T23:53:42.063Z,10.78
2023-05-13T23:56:50.583Z,10.76
2023-05-13T23:59:58.806Z,10.81
